Akron, Iowa
Current Conditions -  °F | °C
As of 4:15 PM on Friday 31 Oct 2014 (Local Time) from KLRJ Reporting Station
Clear Clear  
Wind Chill: 36°   Ceiling: Unl
Heat Index: 41°   Visibility: 10mi
Dew Point: 16°   Wind: 7mph
Humidity: 36%   Direction: 50°NE
Pressure: 30.49"   Gusts: NA
Location:  42.83°N, 96.56°W
Report Text: KLRJ 312115Z AUTO 05006KT 10SM CLR 05/M09 A3049 RMK AO2
Loading
Personal Weather Stations






























Interactive Weather Map
Tropical Storm Tracking
New forecast layout! Learn more

10-Day Weather Forecast

Advertisements
Track Severe Weather on mobile